createdAt,value
2023-03-29T00:00:57.884Z,1009.25
2023-03-29T00:01:57.937Z,1009.26
2023-03-29T00:02:58.001Z,1009.25
2023-03-29T00:03:59.273Z,1009.26
2023-03-29T00:04:57.858Z,1009.27
2023-03-29T00:05:57.863Z,1009.28
2023-03-29T00:06:57.831Z,1009.27
2023-03-29T00:07:57.816Z,1009.26
2023-03-29T00:08:57.818Z,1009.24
2023-03-29T00:09:57.799Z,1009.23
2023-03-29T00:10:57.782Z,1009.25
2023-03-29T00:11:57.928Z,1009.24
2023-03-29T00:12:57.777Z,1009.25
2023-03-29T00:13:57.749Z,1009.24
2023-03-29T00:14:57.744Z,1009.22
2023-03-29T00:15:57.737Z,1009.22
2023-03-29T00:16:57.808Z,1009.23
2023-03-29T00:17:57.892Z,1009.24
2023-03-29T00:18:57.698Z,1009.25
2023-03-29T00:19:57.699Z,1009.25
2023-03-29T00:20:57.676Z,1009.24
2023-03-29T00:21:57.693Z,1009.22
2023-03-29T00:22:57.682Z,1009.21
2023-03-29T00:23:57.717Z,1009.20
2023-03-29T00:24:57.646Z,1009.19
2023-03-29T00:25:57.636Z,1009.19
2023-03-29T00:26:57.635Z,1009.20
2023-03-29T00:27:57.608Z,1009.21
2023-03-29T00:28:57.593Z,1009.20
2023-03-29T00:29:57.719Z,1009.19
2023-03-29T00:30:57.599Z,1009.16
2023-03-29T00:31:57.608Z,1009.14
2023-03-29T00:32:57.612Z,1009.15
2023-03-29T00:33:57.563Z,1009.15
2023-03-29T00:34:57.532Z,1009.14
2023-03-29T00:35:57.592Z,1009.11
2023-03-29T00:36:57.507Z,1009.12
2023-03-29T00:37:57.507Z,1009.08
2023-03-29T00:38:57.497Z,1009.09
2023-03-29T00:39:57.489Z,1009.09
2023-03-29T00:40:57.472Z,1009.12
2023-03-29T00:41:57.600Z,1009.12
2023-03-29T00:42:57.553Z,1009.13
2023-03-29T00:43:57.447Z,1009.13
2023-03-29T00:44:57.448Z,1009.12
2023-03-29T00:45:57.451Z,1009.11
2023-03-29T00:46:57.408Z,1009.09
2023-03-29T00:47:57.682Z,1009.08
2023-03-29T00:48:57.390Z,1009.05
2023-03-29T00:49:57.390Z,1009.03
2023-03-29T00:50:57.364Z,1009.02
2023-03-29T00:51:57.364Z,1009.03
2023-03-29T00:52:57.350Z,1009.01
2023-03-29T00:53:57.360Z,1008.99
2023-03-29T00:54:57.344Z,1008.97
2023-03-29T00:55:57.320Z,1008.96
2023-03-29T00:56:57.368Z,1008.93
2023-03-29T00:57:57.302Z,1008.92
2023-03-29T00:58:57.343Z,1008.90
2023-03-29T00:59:57.414Z,1008.88
2023-03-29T01:00:57.289Z,1008.87
2023-03-29T01:01:57.287Z,1008.86
2023-03-29T01:02:57.289Z,1008.85
2023-03-29T01:03:57.278Z,1008.85
2023-03-29T01:04:57.226Z,1008.82
2023-03-29T01:05:57.373Z,1008.80
2023-03-29T01:06:57.296Z,1008.78
2023-03-29T01:07:57.202Z,1008.77
2023-03-29T01:08:57.192Z,1008.75
2023-03-29T01:09:57.174Z,1008.75
2023-03-29T01:10:57.173Z,1008.74
2023-03-29T01:11:57.180Z,1008.74
2023-03-29T01:12:57.151Z,1008.73
2023-03-29T01:13:57.139Z,1008.73
2023-03-29T01:14:57.118Z,1008.73
2023-03-29T01:15:57.198Z,1008.72
2023-03-29T01:16:57.101Z,1008.72
2023-03-29T01:17:57.340Z,1008.69
2023-03-29T01:18:57.090Z,1008.67
2023-03-29T01:19:57.081Z,1008.65
2023-03-29T01:20:57.076Z,1008.65
2023-03-29T01:21:57.053Z,1008.63
2023-03-29T01:22:57.036Z,1008.61
2023-03-29T01:23:57.277Z,1008.62
2023-03-29T01:24:57.020Z,1008.59
2023-03-29T01:25:57.008Z,1008.57
2023-03-29T01:26:57.004Z,1008.55
2023-03-29T01:27:56.988Z,1008.54
2023-03-29T01:28:56.979Z,1008.53
2023-03-29T01:29:57.101Z,1008.51
2023-03-29T01:30:56.954Z,1008.50
2023-03-29T01:31:57.012Z,1008.46
2023-03-29T01:32:57.118Z,1008.43
2023-03-29T01:33:56.929Z,1008.42
2023-03-29T01:34:56.942Z,1008.41
2023-03-29T01:35:56.988Z,1008.37
2023-03-29T01:36:56.894Z,1008.34
2023-03-29T01:37:56.924Z,1008.31
2023-03-29T01:38:56.889Z,1008.29
2023-03-29T01:39:56.860Z,1008.26
2023-03-29T01:40:56.881Z,1008.24
2023-03-29T01:41:56.982Z,1008.22
2023-03-29T01:42:56.824Z,1008.17
2023-03-29T01:43:56.828Z,1008.16
2023-03-29T01:44:56.814Z,1008.13
2023-03-29T01:45:56.844Z,1008.10
2023-03-29T01:46:56.791Z,1008.08
2023-03-29T01:47:56.994Z,1008.05
2023-03-29T01:48:56.785Z,1008.03
2023-03-29T01:49:56.768Z,1008.01
2023-03-29T01:50:56.759Z,1007.99
2023-03-29T01:51:56.760Z,1007.98
2023-03-29T01:52:56.741Z,1007.98
2023-03-29T01:53:56.853Z,1007.96
2023-03-29T01:54:56.727Z,1007.94
2023-03-29T01:55:56.697Z,1007.94
2023-03-29T01:56:56.724Z,1007.93
2023-03-29T01:57:56.693Z,1007.92
2023-03-29T01:58:56.660Z,1007.91
2023-03-29T01:59:56.693Z,1007.90
2023-03-29T02:00:56.696Z,1007.90
2023-03-29T02:01:56.811Z,1007.87
2023-03-29T02:02:56.688Z,1007.86
2023-03-29T02:03:56.610Z,1007.83
2023-03-29T02:04:56.611Z,1007.82
2023-03-29T02:05:56.721Z,1007.78
2023-03-29T02:06:56.597Z,1007.78
2023-03-29T02:07:56.577Z,1007.77
2023-03-29T02:08:56.577Z,1007.76
2023-03-29T02:09:56.549Z,1007.76
2023-03-29T02:10:56.551Z,1007.74
2023-03-29T02:11:56.658Z,1007.74
2023-03-29T02:12:56.515Z,1007.75
2023-03-29T02:13:56.511Z,1007.74
2023-03-29T02:14:56.502Z,1007.73
2023-03-29T02:15:56.543Z,1007.71
2023-03-29T02:16:56.487Z,1007.71
2023-03-29T02:17:56.636Z,1007.67
2023-03-29T02:18:56.488Z,1007.65
2023-03-29T02:19:56.463Z,1007.66
2023-03-29T02:20:56.438Z,1007.66
2023-03-29T02:21:56.429Z,1007.66
2023-03-29T02:22:56.423Z,1007.63
2023-03-29T02:23:56.537Z,1007.61
2023-03-29T02:24:56.398Z,1007.57
2023-03-29T02:25:56.393Z,1007.56
2023-03-29T02:26:56.370Z,1007.53
2023-03-29T02:27:56.378Z,1007.51
2023-03-29T02:28:56.373Z,1007.48
2023-03-29T02:29:56.636Z,1007.44
2023-03-29T02:31:55.736Z,1007.40
2023-03-29T02:32:56.811Z,1007.40
2023-03-29T02:33:56.719Z,1007.36
2023-03-29T02:34:56.863Z,1007.33
2023-03-29T02:35:56.767Z,1007.33
2023-03-29T02:36:56.687Z,1007.32
2023-03-29T02:37:56.669Z,1007.30
2023-03-29T02:38:56.671Z,1007.29
2023-03-29T02:39:56.647Z,1007.25
2023-03-29T02:40:56.795Z,1007.23
2023-03-29T02:41:56.634Z,1007.21
2023-03-29T02:42:56.626Z,1007.21
2023-03-29T02:43:56.607Z,1007.16
2023-03-29T02:44:56.609Z,1007.18
2023-03-29T02:45:56.591Z,1007.18
2023-03-29T02:46:56.686Z,1007.19
2023-03-29T02:47:56.612Z,1007.16
2023-03-29T02:48:56.564Z,1007.14
2023-03-29T02:49:56.546Z,1007.13
2023-03-29T02:50:56.552Z,1007.11
2023-03-29T02:51:56.525Z,1007.10
2023-03-29T02:52:56.566Z,1007.09
2023-03-29T02:53:56.542Z,1007.04
2023-03-29T02:54:56.498Z,1007.02
2023-03-29T02:55:56.482Z,1007.02
2023-03-29T02:56:56.548Z,1007.03
2023-03-29T02:57:56.461Z,1007.01
2023-03-29T02:58:56.642Z,1006.98
2023-03-29T02:59:56.452Z,1006.96
2023-03-29T03:00:56.436Z,1006.96
2023-03-29T03:01:56.465Z,1006.96
2023-03-29T03:02:56.488Z,1006.98
2023-03-29T03:03:56.473Z,1006.99
2023-03-29T03:04:56.544Z,1007.01
2023-03-29T03:05:56.388Z,1007.04
2023-03-29T03:06:56.386Z,1007.02
2023-03-29T03:07:56.355Z,1007.00
2023-03-29T03:08:56.353Z,1007.01
2023-03-29T03:09:56.330Z,1007.02
2023-03-29T03:10:56.478Z,1006.98
2023-03-29T03:11:56.318Z,1006.98
2023-03-29T03:12:56.315Z,1006.95
2023-03-29T03:13:56.292Z,1006.93
2023-03-29T03:14:56.289Z,1006.93
2023-03-29T03:15:56.296Z,1006.90
2023-03-29T03:16:56.441Z,1006.89
2023-03-29T03:17:56.308Z,1006.86
2023-03-29T03:18:56.252Z,1006.85
2023-03-29T03:19:56.229Z,1006.85
2023-03-29T03:20:56.220Z,1006.85
2023-03-29T03:21:56.203Z,1006.83
2023-03-29T03:22:56.248Z,1006.84
2023-03-29T03:23:56.183Z,1006.81
2023-03-29T03:24:56.172Z,1006.79
2023-03-29T03:25:56.153Z,1006.76
2023-03-29T03:26:56.158Z,1006.75
2023-03-29T03:27:56.144Z,1006.72
2023-03-29T03:28:56.313Z,1006.72
2023-03-29T03:29:56.130Z,1006.70
2023-03-29T03:30:57.305Z,1006.67
2023-03-29T03:32:03.543Z,1006.65
2023-03-29T03:32:56.165Z,1006.63
2023-03-29T03:33:56.074Z,1006.62
2023-03-29T03:34:56.330Z,1006.62
2023-03-29T03:35:56.110Z,1006.62
2023-03-29T03:36:56.043Z,1006.62
2023-03-29T03:37:56.042Z,1006.60
2023-03-29T03:38:56.021Z,1006.62
2023-03-29T03:39:56.010Z,1006.58
2023-03-29T03:40:56.142Z,1006.59
2023-03-29T03:41:55.988Z,1006.59
2023-03-29T03:42:55.990Z,1006.56
2023-03-29T03:43:55.976Z,1006.55
2023-03-29T03:44:55.961Z,1006.55
2023-03-29T03:45:56.039Z,1006.53
2023-03-29T03:46:56.120Z,1006.52
2023-03-29T03:47:56.015Z,1006.53
2023-03-29T03:48:55.926Z,1006.50
2023-03-29T03:49:55.911Z,1006.50
2023-03-29T03:50:55.913Z,1006.49
2023-03-29T03:51:55.883Z,1006.48
2023-03-29T03:52:56.004Z,1006.48
2023-03-29T03:53:55.871Z,1006.50
2023-03-29T03:54:55.853Z,1006.48
2023-03-29T03:55:55.876Z,1006.48
2023-03-29T03:56:55.860Z,1006.46
2023-03-29T03:57:55.822Z,1006.46
2023-03-29T03:58:55.944Z,1006.46
2023-03-29T03:59:55.799Z,1006.44
2023-03-29T04:00:55.790Z,1006.46
2023-03-29T04:01:55.844Z,1006.43
2023-03-29T04:02:55.844Z,1006.45
2023-03-29T04:03:55.840Z,1006.46
2023-03-29T04:04:55.895Z,1006.45
2023-03-29T04:05:55.736Z,1006.43
2023-03-29T04:06:55.733Z,1006.43
2023-03-29T04:07:55.854Z,1006.42
2023-03-29T04:08:55.810Z,1006.43
2023-03-29T04:09:55.730Z,1006.43
2023-03-29T04:10:55.839Z,1006.43
2023-03-29T04:11:55.670Z,1006.43
2023-03-29T04:12:55.670Z,1006.44
2023-03-29T04:13:55.681Z,1006.42
2023-03-29T04:14:55.673Z,1006.41
2023-03-29T04:15:55.716Z,1006.40
2023-03-29T04:16:55.770Z,1006.40
2023-03-29T04:17:55.659Z,1006.39
2023-03-29T04:18:55.664Z,1006.39
2023-03-29T04:19:55.582Z,1006.39
2023-03-29T04:20:55.576Z,1006.37
2023-03-29T04:21:55.566Z,1006.37
2023-03-29T04:22:55.709Z,1006.36
2023-03-29T04:23:55.542Z,1006.36
2023-03-29T04:24:55.531Z,1006.36
2023-03-29T04:25:55.533Z,1006.34
2023-03-29T04:26:55.524Z,1006.35
2023-03-29T04:27:55.499Z,1006.32
2023-03-29T04:28:55.620Z,1006.32
2023-03-29T04:29:55.486Z,1006.31
2023-03-29T04:30:55.487Z,1006.30
2023-03-29T04:31:55.478Z,1006.30
2023-03-29T04:32:55.642Z,1006.30
2023-03-29T04:33:56.340Z,1006.29
2023-03-29T04:34:55.562Z,1006.28
2023-03-29T04:35:55.435Z,1006.28
2023-03-29T04:36:55.363Z,1006.25
2023-03-29T04:37:55.398Z,1006.25
2023-03-29T04:38:55.403Z,1006.24
2023-03-29T04:39:55.374Z,1006.22
2023-03-29T04:40:55.624Z,1006.21
2023-03-29T04:41:55.302Z,1006.21
2023-03-29T04:42:55.291Z,1006.19
2023-03-29T04:43:55.350Z,1006.19
2023-03-29T04:44:55.349Z,1006.18
2023-03-29T04:45:55.338Z,1006.17
2023-03-29T04:46:55.512Z,1006.16
2023-03-29T04:47:55.344Z,1006.15
2023-03-29T04:48:55.291Z,1006.13
2023-03-29T04:49:55.264Z,1006.12
2023-03-29T04:50:55.219Z,1006.11
2023-03-29T04:51:55.201Z,1006.08
2023-03-29T04:52:55.215Z,1006.09
2023-03-29T04:53:55.238Z,1006.02
2023-03-29T04:54:55.175Z,1006.06
2023-03-29T04:55:55.156Z,1006.03
2023-03-29T04:56:55.199Z,1006.05
2023-03-29T04:57:55.386Z,1006.05
2023-03-29T04:58:55.308Z,1006.02
2023-03-29T04:59:55.109Z,1006.02
2023-03-29T05:00:55.121Z,1006.01
2023-03-29T05:01:55.147Z,1006.01
2023-03-29T05:02:55.167Z,1005.99
2023-03-29T05:03:55.117Z,1005.96
2023-03-29T05:04:55.256Z,1005.94
2023-03-29T05:05:55.043Z,1005.91
2023-03-29T05:06:55.036Z,1005.92
2023-03-29T05:07:55.032Z,1005.90
2023-03-29T05:08:55.029Z,1005.89
2023-03-29T05:09:55.081Z,1005.88
2023-03-29T05:10:55.162Z,1005.86
2023-03-29T05:11:54.980Z,1005.85
2023-03-29T05:12:54.978Z,1005.84
2023-03-29T05:13:54.965Z,1005.83
2023-03-29T05:14:54.955Z,1005.82
2023-03-29T05:15:54.957Z,1005.80
2023-03-29T05:16:55.115Z,1005.79
2023-03-29T05:17:54.964Z,1005.77
2023-03-29T05:18:54.933Z,1005.77
2023-03-29T05:19:54.897Z,1005.75
2023-03-29T05:20:54.891Z,1005.74
2023-03-29T05:21:54.882Z,1005.74
2023-03-29T05:22:54.902Z,1005.74
2023-03-29T05:23:54.848Z,1005.72
2023-03-29T05:24:54.861Z,1005.72
2023-03-29T05:25:54.875Z,1005.71
2023-03-29T05:26:54.826Z,1005.71
2023-03-29T05:27:54.807Z,1005.70
2023-03-29T05:28:54.830Z,1005.69
2023-03-29T05:29:54.788Z,1005.69
2023-03-29T05:30:54.787Z,1005.65
2023-03-29T05:32:03.068Z,1005.68
2023-03-29T05:32:54.796Z,1005.67
2023-03-29T05:33:54.752Z,1005.66
2023-03-29T05:34:55.048Z,1005.67
2023-03-29T05:35:54.810Z,1005.66
2023-03-29T05:36:54.721Z,1005.65
2023-03-29T05:37:54.700Z,1005.63
2023-03-29T05:38:54.709Z,1005.63
2023-03-29T05:39:54.684Z,1005.61
2023-03-29T05:40:54.812Z,1005.60
2023-03-29T05:41:54.654Z,1005.60
2023-03-29T05:42:54.657Z,1005.59
2023-03-29T05:43:54.637Z,1005.57
2023-03-29T05:44:54.703Z,1005.56
2023-03-29T05:45:54.665Z,1005.54
2023-03-29T05:46:54.677Z,1005.52
2023-03-29T05:47:54.722Z,1005.51
2023-03-29T05:48:54.597Z,1005.49
2023-03-29T05:49:54.569Z,1005.50
2023-03-29T05:50:54.565Z,1005.51
2023-03-29T05:51:54.555Z,1005.48
2023-03-29T05:52:54.605Z,1005.49
2023-03-29T05:53:54.537Z,1005.48
2023-03-29T05:54:54.523Z,1005.49
2023-03-29T05:55:54.523Z,1005.48
2023-03-29T05:56:54.576Z,1005.47
2023-03-29T05:57:54.488Z,1005.46
2023-03-29T05:58:55.166Z,1005.45
2023-03-29T05:59:54.495Z,1005.44
2023-03-29T06:00:54.476Z,1005.43
2023-03-29T06:01:54.476Z,1005.43
2023-03-29T06:02:54.549Z,1005.40
2023-03-29T06:03:54.643Z,1005.41
2023-03-29T06:04:54.574Z,1005.40
2023-03-29T06:05:54.423Z,1005.38
2023-03-29T06:06:54.617Z,1005.37
2023-03-29T06:07:54.692Z,1005.35
2023-03-29T06:08:54.391Z,1005.32
2023-03-29T06:09:54.359Z,1005.31
2023-03-29T06:10:54.499Z,1005.30
2023-03-29T06:11:54.334Z,1005.28
2023-03-29T06:12:54.333Z,1005.26
2023-03-29T06:13:54.316Z,1005.25
2023-03-29T06:14:54.314Z,1005.24
2023-03-29T06:15:54.300Z,1005.25
2023-03-29T06:16:54.487Z,1005.23
2023-03-29T06:17:54.361Z,1005.24
2023-03-29T06:18:54.275Z,1005.22
2023-03-29T06:19:54.257Z,1005.22
2023-03-29T06:20:54.249Z,1005.23
2023-03-29T06:21:54.238Z,1005.23
2023-03-29T06:22:54.272Z,1005.22
2023-03-29T06:23:54.228Z,1005.23
2023-03-29T06:24:54.201Z,1005.26
2023-03-29T06:25:54.203Z,1005.26
2023-03-29T06:26:54.189Z,1005.27
2023-03-29T06:27:54.185Z,1005.27
2023-03-29T06:28:54.311Z,1005.27
2023-03-29T06:29:54.197Z,1005.25
2023-03-29T06:30:54.175Z,1005.25
2023-03-29T06:31:54.141Z,1005.25
2023-03-29T06:32:54.229Z,1005.24
2023-03-29T06:33:54.131Z,1005.27
2023-03-29T06:34:54.256Z,1005.25
2023-03-29T06:35:54.137Z,1005.26
2023-03-29T06:36:54.087Z,1005.26
2023-03-29T06:37:54.075Z,1005.27
2023-03-29T06:38:54.060Z,1005.25
2023-03-29T06:39:54.059Z,1005.25
2023-03-29T06:40:54.200Z,1005.29
2023-03-29T06:41:54.057Z,1005.28
2023-03-29T06:42:54.008Z,1005.28
2023-03-29T06:43:54.016Z,1005.28
2023-03-29T06:44:54.057Z,1005.29
2023-03-29T06:45:54.050Z,1005.29
2023-03-29T06:46:54.285Z,1005.28
2023-03-29T06:47:54.075Z,1005.27
2023-03-29T06:48:53.973Z,1005.25
2023-03-29T06:49:53.950Z,1005.23
2023-03-29T06:50:53.930Z,1005.24
2023-03-29T06:51:53.922Z,1005.22
2023-03-29T06:52:53.944Z,1005.21
2023-03-29T06:53:53.907Z,1005.21
2023-03-29T06:54:53.887Z,1005.21
2023-03-29T06:55:53.883Z,1005.20
2023-03-29T06:56:53.893Z,1005.20
2023-03-29T06:57:53.859Z,1005.17
2023-03-29T06:58:53.986Z,1005.18
2023-03-29T06:59:53.841Z,1005.15
2023-03-29T07:00:53.884Z,1005.16
2023-03-29T07:01:54.002Z,1005.14
2023-03-29T07:02:53.875Z,1005.15
2023-03-29T07:03:53.823Z,1005.14
2023-03-29T07:04:53.828Z,1005.15
2023-03-29T07:05:53.774Z,1005.14
2023-03-29T07:06:53.776Z,1005.15
2023-03-29T07:07:53.770Z,1005.14
2023-03-29T07:08:53.750Z,1005.13
2023-03-29T07:09:53.772Z,1005.14
2023-03-29T07:10:54.047Z,1005.11
2023-03-29T07:11:53.717Z,1005.10
2023-03-29T07:12:53.698Z,1005.09
2023-03-29T07:13:53.690Z,1005.09
2023-03-29T07:14:53.686Z,1005.10
2023-03-29T07:15:53.748Z,1005.09
2023-03-29T07:16:53.782Z,1005.09
2023-03-29T07:17:53.668Z,1005.09
2023-03-29T07:18:53.638Z,1005.09
2023-03-29T07:19:53.635Z,1005.08
2023-03-29T07:20:53.613Z,1005.09
2023-03-29T07:21:53.600Z,1005.07
2023-03-29T07:22:53.741Z,1005.05
2023-03-29T07:23:53.576Z,1005.07
2023-03-29T07:24:53.569Z,1005.08
2023-03-29T07:25:53.784Z,1005.05
2023-03-29T07:27:03.385Z,1005.07
2023-03-29T07:27:53.536Z,1005.07
2023-03-29T07:28:53.677Z,1005.06
2023-03-29T07:29:53.511Z,1005.06
2023-03-29T07:30:53.516Z,1005.12
2023-03-29T07:31:53.500Z,1005.04
2023-03-29T07:32:53.694Z,1005.05
2023-03-29T07:33:53.701Z,1005.04
2023-03-29T07:34:53.500Z,1005.10
2023-03-29T07:35:53.509Z,1005.02
2023-03-29T07:36:53.446Z,1005.04
2023-03-29T07:37:53.434Z,1005.05
2023-03-29T07:38:55.886Z,1005.06
2023-03-29T07:39:53.420Z,1005.06
2023-03-29T07:40:53.559Z,1005.04
2023-03-29T07:41:53.383Z,1005.06
2023-03-29T07:42:53.367Z,1005.04
2023-03-29T07:43:53.380Z,1005.06
2023-03-29T07:44:53.361Z,1005.06
2023-03-29T07:45:53.403Z,1005.10
2023-03-29T07:46:53.495Z,1005.07
2023-03-29T07:47:53.377Z,1005.06
2023-03-29T07:48:53.319Z,1005.09
2023-03-29T07:49:53.311Z,1005.04
2023-03-29T07:50:53.290Z,1005.05
2023-03-29T07:51:53.277Z,1005.08
2023-03-29T07:52:53.308Z,1005.05
2023-03-29T07:53:53.272Z,1005.05
2023-03-29T07:54:53.254Z,1005.06
2023-03-29T07:55:53.238Z,1005.03
2023-03-29T07:56:53.241Z,1005.00
2023-03-29T07:57:53.213Z,1005.03
2023-03-29T07:58:53.349Z,1005.03
2023-03-29T07:59:53.194Z,1005.01
2023-03-29T08:00:53.228Z,1005.01
2023-03-29T08:01:53.186Z,1005.00
2023-03-29T08:02:53.216Z,1004.99
2023-03-29T08:03:53.322Z,1004.98
2023-03-29T08:04:53.354Z,1004.98
2023-03-29T08:05:53.144Z,1004.97
2023-03-29T08:06:53.124Z,1004.97
2023-03-29T08:07:53.118Z,1004.94
2023-03-29T08:08:53.108Z,1004.96
2023-03-29T08:09:53.097Z,1004.93
2023-03-29T08:10:53.108Z,1004.92
2023-03-29T08:11:53.072Z,1004.92
2023-03-29T08:12:53.054Z,1004.91
2023-03-29T08:13:53.043Z,1004.89
2023-03-29T08:14:53.037Z,1004.88
2023-03-29T08:15:53.034Z,1004.89
2023-03-29T08:16:53.238Z,1004.86
2023-03-29T08:17:53.038Z,1004.86
2023-03-29T08:18:53.024Z,1004.85
2023-03-29T08:19:52.993Z,1004.84
2023-03-29T08:20:52.980Z,1004.84
2023-03-29T08:21:52.974Z,1004.87
2023-03-29T08:22:53.014Z,1004.80
2023-03-29T08:23:52.963Z,1004.83
2023-03-29T08:24:52.933Z,1004.83
2023-03-29T08:25:52.922Z,1004.82
2023-03-29T08:26:52.922Z,1004.84
2023-03-29T08:27:52.906Z,1004.85
2023-03-29T08:28:53.026Z,1004.87
2023-03-29T08:29:52.890Z,1004.85
2023-03-29T08:30:52.943Z,1004.85
2023-03-29T08:32:01.098Z,1004.84
2023-03-29T08:32:54.545Z,1004.82
2023-03-29T08:33:52.868Z,1004.81
2023-03-29T08:34:52.978Z,1004.80
2023-03-29T08:35:52.911Z,1004.79
2023-03-29T08:36:52.836Z,1004.82
2023-03-29T08:37:52.919Z,1004.79
2023-03-29T08:38:52.794Z,1004.80
2023-03-29T08:39:52.795Z,1004.81
2023-03-29T08:40:52.928Z,1004.80
2023-03-29T08:41:52.780Z,1004.80
2023-03-29T08:42:52.780Z,1004.81
2023-03-29T08:43:52.766Z,1004.80
2023-03-29T08:44:52.730Z,1004.82
2023-03-29T08:45:52.782Z,1004.83
2023-03-29T08:46:52.900Z,1004.84
2023-03-29T08:47:52.794Z,1004.86
2023-03-29T08:48:52.696Z,1004.82
2023-03-29T08:49:52.696Z,1004.83
2023-03-29T08:50:52.696Z,1004.84
2023-03-29T08:51:52.682Z,1004.81
2023-03-29T08:52:52.698Z,1004.83
2023-03-29T08:53:52.705Z,1004.84
2023-03-29T08:54:52.653Z,1004.84
2023-03-29T08:55:52.630Z,1004.83
2023-03-29T08:56:52.647Z,1004.82
2023-03-29T08:57:52.605Z,1004.79
2023-03-29T08:58:52.846Z,1004.80
2023-03-29T08:59:52.623Z,1004.81
2023-03-29T09:00:52.585Z,1004.81
2023-03-29T09:01:52.638Z,1004.81
2023-03-29T09:02:52.664Z,1004.83
2023-03-29T09:03:52.617Z,1004.82
2023-03-29T09:04:52.570Z,1004.80
2023-03-29T09:05:52.577Z,1004.80
2023-03-29T09:06:52.490Z,1004.80
2023-03-29T09:07:52.484Z,1004.79
2023-03-29T09:08:52.488Z,1004.79
2023-03-29T09:09:52.477Z,1004.81
2023-03-29T09:10:52.538Z,1004.79
2023-03-29T09:11:52.453Z,1004.77
2023-03-29T09:12:52.458Z,1004.78
2023-03-29T09:13:52.421Z,1004.77
2023-03-29T09:14:52.555Z,1004.77
2023-03-29T09:15:52.473Z,1004.77
2023-03-29T09:16:52.556Z,1004.77
2023-03-29T09:17:52.439Z,1004.77
2023-03-29T09:18:52.408Z,1004.76
2023-03-29T09:19:52.372Z,1004.78
2023-03-29T09:20:52.344Z,1004.77
2023-03-29T09:21:52.371Z,1004.78
2023-03-29T09:22:52.341Z,1004.76
2023-03-29T09:23:52.720Z,1004.74
2023-03-29T09:24:52.308Z,1004.76
2023-03-29T09:25:54.129Z,1004.74
2023-03-29T09:26:52.288Z,1004.73
2023-03-29T09:27:52.277Z,1004.74
2023-03-29T09:28:52.423Z,1004.73
2023-03-29T09:29:52.253Z,1004.73
2023-03-29T09:30:52.234Z,1004.70
2023-03-29T09:31:59.596Z,1004.70
2023-03-29T09:32:52.301Z,1004.68
2023-03-29T09:33:52.210Z,1004.70
2023-03-29T09:34:52.216Z,1004.68
2023-03-29T09:35:52.213Z,1004.68
2023-03-29T09:36:52.161Z,1004.66
2023-03-29T09:37:52.174Z,1004.66
2023-03-29T09:38:52.146Z,1004.64
2023-03-29T09:39:52.135Z,1004.63
2023-03-29T09:40:52.271Z,1004.61
2023-03-29T09:41:52.120Z,1004.59
2023-03-29T09:42:52.098Z,1004.59
2023-03-29T09:43:52.124Z,1004.56
2023-03-29T09:44:52.083Z,1004.55
2023-03-29T09:45:52.098Z,1004.55
2023-03-29T09:46:52.091Z,1004.55
2023-03-29T09:47:52.121Z,1004.54
2023-03-29T09:48:52.044Z,1004.52
2023-03-29T09:49:52.024Z,1004.52
2023-03-29T09:50:52.025Z,1004.51
2023-03-29T09:51:52.007Z,1004.50
2023-03-29T09:52:52.017Z,1004.50
2023-03-29T09:53:51.988Z,1004.50
2023-03-29T09:54:51.968Z,1004.48
2023-03-29T09:55:51.964Z,1004.47
2023-03-29T09:56:51.980Z,1004.49
2023-03-29T09:57:52.052Z,1004.47
2023-03-29T09:58:52.100Z,1004.48
2023-03-29T09:59:51.933Z,1004.48
2023-03-29T10:00:51.915Z,1004.47
2023-03-29T10:01:52.083Z,1004.48
2023-03-29T10:02:51.939Z,1004.47
2023-03-29T10:03:51.914Z,1004.48
2023-03-29T10:04:52.164Z,1004.49
2023-03-29T10:05:51.865Z,1004.47
2023-03-29T10:06:51.840Z,1004.47
2023-03-29T10:07:51.881Z,1004.47
2023-03-29T10:08:51.873Z,1004.47
2023-03-29T10:09:51.818Z,1004.47
2023-03-29T10:10:51.985Z,1004.48
2023-03-29T10:11:51.823Z,1004.49
2023-03-29T10:12:51.835Z,1004.46
2023-03-29T10:13:51.776Z,1004.45
2023-03-29T10:14:53.566Z,1004.46
2023-03-29T10:15:51.749Z,1004.44
2023-03-29T10:16:51.907Z,1004.44
2023-03-29T10:17:51.798Z,1004.42
2023-03-29T10:18:51.730Z,1004.43
2023-03-29T10:19:51.708Z,1004.44
2023-03-29T10:20:51.705Z,1004.44
2023-03-29T10:21:51.693Z,1004.46
2023-03-29T10:22:51.716Z,1004.44
2023-03-29T10:23:51.666Z,1004.43
2023-03-29T10:24:51.669Z,1004.43
2023-03-29T10:25:51.644Z,1004.44
2023-03-29T10:26:51.644Z,1004.43
2023-03-29T10:27:51.626Z,1004.45
2023-03-29T10:28:51.745Z,1004.44
2023-03-29T10:29:51.617Z,1004.44
2023-03-29T10:30:51.595Z,1004.46
2023-03-29T10:32:00.193Z,1004.45
2023-03-29T10:32:51.656Z,1004.42
2023-03-29T10:33:51.595Z,1004.44
2023-03-29T10:34:51.726Z,1004.45
2023-03-29T10:35:51.626Z,1004.44
2023-03-29T10:36:51.582Z,1004.44
2023-03-29T10:37:51.534Z,1004.44
2023-03-29T10:38:51.550Z,1004.43
2023-03-29T10:39:51.496Z,1004.42
2023-03-29T10:40:51.659Z,1004.42
2023-03-29T10:41:51.515Z,1004.41
2023-03-29T10:42:51.623Z,1004.36
2023-03-29T10:43:51.523Z,1004.38
2023-03-29T10:44:51.479Z,1004.39
2023-03-29T10:45:51.472Z,1004.40
2023-03-29T10:46:51.593Z,1004.40
2023-03-29T10:47:51.482Z,1004.40
2023-03-29T10:48:51.431Z,1004.41
2023-03-29T10:49:52.138Z,1004.41
2023-03-29T10:50:51.444Z,1004.41
2023-03-29T10:51:51.389Z,1004.41
2023-03-29T10:52:51.433Z,1004.41
2023-03-29T10:53:51.369Z,1004.41
2023-03-29T10:54:51.358Z,1004.39
2023-03-29T10:55:51.363Z,1004.42
2023-03-29T10:56:52.506Z,1004.40
2023-03-29T10:57:51.327Z,1004.40
2023-03-29T10:58:51.440Z,1004.35
2023-03-29T10:59:51.307Z,1004.34
2023-03-29T11:00:51.305Z,1004.33
2023-03-29T11:01:51.431Z,1004.34
2023-03-29T11:02:51.395Z,1004.35
2023-03-29T11:03:51.322Z,1004.32
2023-03-29T11:04:51.310Z,1004.33
2023-03-29T11:05:51.276Z,1004.33
2023-03-29T11:06:51.222Z,1004.32
2023-03-29T11:07:51.223Z,1004.31
2023-03-29T11:08:51.240Z,1004.28
2023-03-29T11:09:51.197Z,1004.29
2023-03-29T11:10:51.454Z,1004.28
2023-03-29T11:11:56.178Z,1004.27
2023-03-29T11:12:51.170Z,1004.25
2023-03-29T11:13:51.167Z,1004.23
2023-03-29T11:14:51.152Z,1004.25
2023-03-29T11:15:51.192Z,1004.22
2023-03-29T11:16:51.274Z,1004.23
2023-03-29T11:17:51.163Z,1004.20
2023-03-29T11:18:51.130Z,1004.20
2023-03-29T11:19:51.151Z,1004.20
2023-03-29T11:20:51.084Z,1004.20
2023-03-29T11:21:51.082Z,1004.21
2023-03-29T11:22:51.127Z,1004.20
2023-03-29T11:23:51.059Z,1004.19
2023-03-29T11:24:51.031Z,1004.18
2023-03-29T11:25:51.007Z,1004.18
2023-03-29T11:26:51.026Z,1004.16
2023-03-29T11:27:50.987Z,1004.17
2023-03-29T11:28:51.140Z,1004.17
2023-03-29T11:29:50.993Z,1004.17
2023-03-29T11:30:51.015Z,1004.15
2023-03-29T11:31:50.969Z,1004.15
2023-03-29T11:32:50.974Z,1004.14
2023-03-29T11:33:50.977Z,1004.13
2023-03-29T11:34:51.062Z,1004.12
2023-03-29T11:35:50.942Z,1004.11
2023-03-29T11:36:50.929Z,1004.09
2023-03-29T11:37:50.892Z,1004.10
2023-03-29T11:38:50.869Z,1004.10
2023-03-29T11:39:50.903Z,1004.07
2023-03-29T11:40:51.099Z,1004.08
2023-03-29T11:41:50.852Z,1004.05
2023-03-29T11:42:50.901Z,1004.05
2023-03-29T11:43:50.846Z,1004.06
2023-03-29T11:44:52.250Z,1004.05
2023-03-29T11:45:50.812Z,1004.04
2023-03-29T11:46:50.981Z,1004.07
2023-03-29T11:47:50.914Z,1004.06
2023-03-29T11:48:50.782Z,1004.07
2023-03-29T11:49:50.801Z,1004.07
2023-03-29T11:50:50.764Z,1004.07
2023-03-29T11:51:50.741Z,1004.05
2023-03-29T11:52:50.772Z,1004.06
2023-03-29T11:53:50.710Z,1004.07
2023-03-29T11:54:50.750Z,1004.05
2023-03-29T11:55:50.713Z,1004.04
2023-03-29T11:56:50.739Z,1004.03
2023-03-29T11:57:50.751Z,1004.02
2023-03-29T11:58:50.814Z,1004.03
2023-03-29T11:59:50.673Z,1004.01
2023-03-29T12:00:50.658Z,1004.01
2023-03-29T12:01:50.675Z,1003.99
2023-03-29T12:02:50.719Z,1004.00
2023-03-29T12:03:50.718Z,1003.99
2023-03-29T12:04:50.766Z,1003.98
2023-03-29T12:05:50.602Z,1003.98
2023-03-29T12:06:50.570Z,1003.96